createdAt,value
2023-02-16T00:01:05.148Z,3.28
2023-02-16T00:03:33.750Z,3.20
2023-02-16T00:06:03.300Z,3.12
2023-02-16T00:08:31.411Z,3.10
2023-02-16T00:11:17.018Z,3.18
2023-02-16T00:13:48.746Z,3.18
2023-02-16T00:16:18.306Z,3.15
2023-02-16T00:18:46.508Z,3.15
2023-02-16T00:21:16.043Z,3.13
2023-02-16T00:23:44.181Z,3.05
2023-02-16T00:26:15.476Z,3.04
2023-02-16T00:28:44.648Z,3.09
2023-02-16T00:31:17.816Z,3.06
2023-02-16T00:33:46.116Z,3.12
2023-02-16T00:36:15.657Z,3.22
2023-02-16T00:38:43.774Z,3.22
2023-02-16T00:41:37.803Z,3.32
2023-02-16T00:44:06.629Z,3.30
2023-02-16T00:46:34.905Z,3.18
2023-02-16T00:49:04.144Z,3.20
2023-02-16T00:51:33.621Z,3.24
2023-02-16T00:54:01.787Z,3.20
2023-02-16T00:56:30.173Z,3.18
2023-02-16T00:58:58.311Z,3.25
2023-02-16T01:01:26.487Z,3.39
2023-02-16T01:03:54.577Z,3.34
2023-02-16T01:06:41.758Z,3.31
2023-02-16T01:09:33.306Z,3.27
2023-02-16T01:12:02.738Z,3.36
2023-02-16T01:14:31.309Z,3.35
2023-02-16T01:17:01.037Z,3.39
2023-02-16T01:19:29.968Z,3.34
2023-02-16T01:21:58.071Z,3.43
2023-02-16T01:24:31.096Z,3.44
2023-02-16T01:26:59.206Z,3.41
2023-02-16T01:29:27.323Z,3.44
2023-02-16T01:31:55.649Z,3.40
2023-02-16T01:34:25.508Z,3.41
2023-02-16T01:36:53.932Z,3.44
2023-02-16T01:39:22.074Z,3.42
2023-02-16T01:42:12.685Z,3.35
2023-02-16T01:44:43.919Z,3.34
2023-02-16T01:47:17.865Z,3.31
2023-02-16T01:49:45.986Z,3.18
2023-02-16T01:52:25.484Z,3.32
2023-02-16T01:54:54.675Z,3.36
2023-02-16T01:57:28.620Z,3.32
2023-02-16T02:00:08.552Z,3.38
2023-02-16T02:02:43.970Z,3.45
2023-02-16T02:05:37.970Z,3.39
2023-02-16T02:08:13.564Z,3.49
2023-02-16T02:10:46.821Z,3.47
2023-02-16T02:13:20.730Z,3.34
2023-02-16T02:15:48.900Z,3.39
2023-02-16T02:18:17.453Z,3.38
2023-02-16T02:21:15.614Z,3.38
2023-02-16T02:23:52.409Z,3.32
2023-02-16T02:26:55.118Z,3.31
2023-02-16T02:29:57.278Z,3.32
2023-02-16T02:32:31.769Z,3.25
2023-02-16T02:35:03.251Z,3.22
2023-02-16T02:37:40.895Z,3.25
2023-02-16T02:40:12.996Z,3.25
2023-02-16T02:42:45.469Z,3.20
2023-02-16T02:45:15.394Z,3.15
2023-02-16T02:47:45.308Z,3.16
2023-02-16T02:50:32.173Z,3.21
2023-02-16T02:53:02.179Z,3.23
2023-02-16T02:55:48.501Z,3.22
2023-02-16T02:58:35.562Z,3.27
2023-02-16T03:01:03.961Z,3.26
2023-02-16T03:03:35.109Z,3.18
2023-02-16T03:06:05.753Z,3.07
2023-02-16T03:08:35.027Z,3.06
2023-02-16T03:11:23.419Z,3.05
2023-02-16T03:13:53.834Z,3.02
2023-02-16T03:16:24.777Z,3.11
2023-02-16T03:19:10.094Z,3.07
2023-02-16T03:21:55.826Z,3.10
2023-02-16T03:24:43.613Z,3.02
2023-02-16T03:27:29.136Z,2.89
2023-02-16T03:29:58.677Z,2.78
2023-02-16T03:32:26.952Z,2.71
2023-02-16T03:34:55.020Z,2.70
2023-02-16T03:37:23.276Z,2.57
2023-02-16T03:40:08.929Z,2.56
2023-02-16T03:42:37.073Z,2.55
2023-02-16T03:45:07.353Z,2.51
2023-02-16T03:47:35.512Z,2.39
2023-02-16T03:50:03.586Z,2.33
2023-02-16T03:52:31.972Z,2.17
2023-02-16T03:55:00.580Z,2.00
2023-02-16T03:57:28.636Z,1.92
2023-02-16T03:59:59.165Z,1.80
2023-02-16T04:02:28.985Z,1.64
2023-02-16T04:04:57.190Z,1.55
2023-02-16T04:07:25.611Z,1.41
2023-02-16T04:09:53.717Z,1.32
2023-02-16T04:12:38.825Z,1.29
2023-02-16T04:15:08.256Z,1.14
2023-02-16T04:17:37.745Z,1.07
2023-02-16T04:20:07.226Z,1.01
2023-02-16T04:22:35.325Z,1.00
2023-02-16T04:25:03.394Z,0.97
2023-02-16T04:27:31.497Z,0.92
2023-02-16T04:29:59.548Z,0.85
2023-02-16T04:32:27.689Z,0.74
2023-02-16T04:34:57.447Z,0.64
2023-02-16T04:37:25.523Z,0.57
2023-02-16T04:39:53.638Z,0.51
2023-02-16T04:42:21.716Z,0.45
2023-02-16T04:44:49.844Z,0.36
2023-02-16T04:47:17.918Z,0.33
2023-02-16T04:49:48.063Z,0.25
2023-02-16T04:52:19.380Z,0.18
2023-02-16T04:54:47.507Z,0.14
2023-02-16T04:57:16.028Z,0.13
2023-02-16T04:59:44.095Z,0.10
2023-02-16T05:02:12.475Z,0.03
2023-02-16T05:04:42.112Z,-0.03
2023-02-16T05:07:10.273Z,-0.08
2023-02-16T05:09:39.757Z,-0.11
2023-02-16T05:12:25.446Z,-0.15
2023-02-16T05:14:53.610Z,-0.21
2023-02-16T05:17:22.820Z,-0.29
2023-02-16T05:19:51.633Z,-0.34
2023-02-16T05:22:19.793Z,-0.37
2023-02-16T05:24:49.406Z,-0.38
2023-02-16T05:27:18.146Z,-0.40
2023-02-16T05:29:46.530Z,-0.37
2023-02-16T05:32:14.727Z,-0.40
2023-02-16T05:34:44.434Z,-0.37
2023-02-16T05:37:12.626Z,-0.40
2023-02-16T05:39:40.734Z,-0.42
2023-02-16T05:42:10.610Z,-0.44
2023-02-16T05:44:38.813Z,-0.46
2023-02-16T05:47:06.932Z,-0.51
2023-02-16T05:49:35.069Z,-0.55
2023-02-16T05:52:03.403Z,-0.57
2023-02-16T05:54:31.649Z,-0.59
2023-02-16T05:57:00.116Z,-0.63
2023-02-16T05:59:29.739Z,-0.62
2023-02-16T06:01:57.892Z,-0.60
2023-02-16T06:04:25.996Z,-0.60
2023-02-16T06:06:54.061Z,-0.62
2023-02-16T06:09:22.482Z,-0.66
2023-02-16T06:11:50.566Z,-0.64
2023-02-16T06:14:19.960Z,-0.66
2023-02-16T06:16:50.120Z,-0.61
2023-02-16T06:19:18.869Z,-0.61
2023-02-16T06:21:46.972Z,-0.48
2023-02-16T06:24:15.568Z,-0.51
2023-02-16T06:26:43.736Z,-0.53
2023-02-16T06:29:12.024Z,-0.57
2023-02-16T06:31:40.234Z,-0.59
2023-02-16T06:34:09.812Z,-0.60
2023-02-16T06:36:39.044Z,-0.66
2023-02-16T06:39:08.714Z,-0.70
2023-02-16T06:41:40.211Z,-0.76
2023-02-16T06:44:09.295Z,-0.81
2023-02-16T06:46:37.495Z,-0.81
2023-02-16T06:49:06.029Z,-0.81
2023-02-16T06:51:35.494Z,-0.80
2023-02-16T06:54:03.609Z,-0.78
2023-02-16T06:56:31.724Z,-0.77
2023-02-16T06:58:59.810Z,-0.74
2023-02-16T07:01:27.942Z,-0.69
2023-02-16T07:03:56.879Z,-0.66
2023-02-16T07:06:25.340Z,-0.63
2023-02-16T07:08:54.903Z,-0.57
2023-02-16T07:11:22.961Z,-0.51
2023-02-16T07:13:51.093Z,-0.41
2023-02-16T07:16:19.551Z,-0.31
2023-02-16T07:18:47.764Z,-0.20
2023-02-16T07:21:15.926Z,-0.12
2023-02-16T07:23:44.035Z,-0.07
2023-02-16T07:26:13.587Z,-0.04
2023-02-16T07:28:41.739Z,-0.02
2023-02-16T07:31:10.881Z,0.00
2023-02-16T07:33:39.178Z,0.05
2023-02-16T07:36:08.166Z,0.07
2023-02-16T07:38:36.284Z,0.13
2023-02-16T07:41:07.865Z,0.59
2023-02-16T07:43:39.460Z,0.63
2023-02-16T07:46:07.935Z,0.69
2023-02-16T07:48:36.158Z,0.99
2023-02-16T07:51:05.090Z,1.42
2023-02-16T07:53:33.507Z,1.61
2023-02-16T07:56:01.634Z,1.79
2023-02-16T07:58:29.736Z,1.98
2023-02-16T08:01:07.218Z,2.20
2023-02-16T08:03:35.386Z,2.41
2023-02-16T08:06:03.929Z,2.44
2023-02-16T08:08:32.159Z,2.56
2023-02-16T08:11:01.791Z,2.69
2023-02-16T08:13:29.961Z,2.92
2023-02-16T08:15:59.516Z,3.03
2023-02-16T08:18:27.622Z,3.05
2023-02-16T08:21:04.116Z,3.18
2023-02-16T08:23:32.857Z,3.33
2023-02-16T08:26:01.220Z,3.44
2023-02-16T08:28:29.707Z,3.54
2023-02-16T08:30:59.862Z,3.65
2023-02-16T08:33:28.458Z,3.64
2023-02-16T08:35:56.556Z,3.64
2023-02-16T08:38:25.566Z,3.71
2023-02-16T08:40:54.101Z,3.81
2023-02-16T08:43:22.620Z,3.95
2023-02-16T08:45:51.821Z,4.14
2023-02-16T08:48:21.396Z,4.32
2023-02-16T08:50:53.827Z,4.50
2023-02-16T08:53:23.157Z,4.72
2023-02-16T08:55:55.738Z,4.96
2023-02-16T08:58:24.507Z,5.12
2023-02-16T09:00:52.688Z,5.19
2023-02-16T09:03:22.241Z,5.24
2023-02-16T09:05:51.287Z,5.26
2023-02-16T09:08:19.479Z,5.27
2023-02-16T09:10:47.611Z,5.22
2023-02-16T09:13:16.241Z,5.26
2023-02-16T09:15:44.668Z,5.29
2023-02-16T09:18:14.122Z,5.37
2023-02-16T09:20:46.737Z,5.41
2023-02-16T09:23:15.201Z,5.48
2023-02-16T09:25:43.367Z,5.52
2023-02-16T09:28:11.684Z,5.58
2023-02-16T09:30:39.893Z,5.65
2023-02-16T09:33:08.322Z,5.70
2023-02-16T09:35:36.498Z,5.84
2023-02-16T09:38:07.759Z,6.03
2023-02-16T09:40:36.172Z,6.16
2023-02-16T09:43:08.377Z,6.39
2023-02-16T09:45:40.881Z,6.67
2023-02-16T09:48:12.152Z,6.89
2023-02-16T09:50:53.387Z,7.11
2023-02-16T09:53:27.501Z,7.29
2023-02-16T09:55:59.694Z,7.43
2023-02-16T09:58:41.897Z,7.63
2023-02-16T10:01:14.576Z,7.90
2023-02-16T10:03:51.486Z,7.89
2023-02-16T10:06:42.293Z,7.92
2023-02-16T10:09:13.630Z,8.03
2023-02-16T10:11:46.635Z,8.18
2023-02-16T10:14:19.765Z,8.42
2023-02-16T10:16:51.960Z,8.55
2023-02-16T10:19:21.906Z,8.63
2023-02-16T10:21:52.587Z,8.75
2023-02-16T10:24:22.106Z,8.76
2023-02-16T10:26:52.137Z,8.96
2023-02-16T10:29:22.204Z,9.03
2023-02-16T10:31:53.028Z,9.24
2023-02-16T10:34:23.189Z,9.46
2023-02-16T10:37:20.806Z,9.58
2023-02-16T10:39:53.034Z,9.62
2023-02-16T10:42:25.840Z,9.63
2023-02-16T10:44:57.695Z,9.59
2023-02-16T10:47:31.199Z,9.42
2023-02-16T10:49:59.366Z,9.40
2023-02-16T10:52:27.573Z,9.71
2023-02-16T10:54:57.067Z,9.89
2023-02-16T10:57:27.601Z,9.87
2023-02-16T10:59:56.352Z,9.95
2023-02-16T11:02:26.237Z,9.96
2023-02-16T11:04:54.457Z,10.16
2023-02-16T11:07:23.401Z,10.15
2023-02-16T11:09:53.164Z,10.40
2023-02-16T11:12:30.054Z,10.57
2023-02-16T11:15:02.472Z,10.84
2023-02-16T11:17:31.436Z,10.90
2023-02-16T11:20:01.930Z,10.77
2023-02-16T11:22:32.645Z,10.65
2023-02-16T11:25:22.054Z,10.71
2023-02-16T11:27:57.098Z,10.87
2023-02-16T11:30:32.498Z,10.80
2023-02-16T11:33:02.129Z,10.79
2023-02-16T11:35:31.834Z,10.88
2023-02-16T11:38:00.356Z,10.83
2023-02-16T11:40:29.851Z,10.94
2023-02-16T11:42:59.933Z,10.85
2023-02-16T11:45:31.314Z,10.71
2023-02-16T11:48:01.733Z,10.73
2023-02-16T11:50:30.446Z,10.66
2023-02-16T11:52:59.343Z,10.38
2023-02-16T11:55:32.655Z,10.48
2023-02-16T11:58:16.569Z,10.53
2023-02-16T12:00:49.029Z,10.47
2023-02-16T12:03:45.612Z,10.30
2023-02-16T12:06:23.480Z,10.01
2023-02-16T12:09:01.464Z,9.67
2023-02-16T12:11:34.161Z,9.48
2023-02-16T12:14:13.532Z,9.16
2023-02-16T12:16:44.661Z,9.17
2023-02-16T12:19:20.292Z,9.22
2023-02-16T12:21:49.397Z,9.13
2023-02-16T12:24:28.495Z,9.02
2023-02-16T12:26:57.981Z,8.97
2023-02-16T12:29:37.960Z,8.77
2023-02-16T12:32:12.123Z,8.80
2023-02-16T12:34:48.813Z,8.76
2023-02-16T12:37:21.318Z,8.72
2023-02-16T12:39:52.686Z,8.59
2023-02-16T12:42:36.970Z,8.59
2023-02-16T12:45:10.046Z,8.51
2023-02-16T12:47:41.003Z,8.54
2023-02-16T12:50:12.645Z,8.62
2023-02-16T12:52:41.547Z,8.51
2023-02-16T12:55:18.018Z,8.39
2023-02-16T12:57:50.813Z,8.33
2023-02-16T13:00:24.057Z,8.31
2023-02-16T13:02:54.175Z,8.32
2023-02-16T13:05:23.227Z,8.43
2023-02-16T13:07:52.117Z,8.35
2023-02-16T13:10:22.135Z,8.23
2023-02-16T13:12:51.985Z,8.20
2023-02-16T13:15:23.152Z,8.20
2023-02-16T13:17:52.491Z,8.23
2023-02-16T13:20:21.380Z,8.20
2023-02-16T13:23:11.860Z,8.17
2023-02-16T13:25:54.229Z,8.10
2023-02-16T13:28:40.696Z,8.14
2023-02-16T13:31:22.450Z,8.16
2023-02-16T13:33:57.316Z,8.06
2023-02-16T13:36:33.981Z,7.99
2023-02-16T13:39:13.825Z,8.05
2023-02-16T13:41:46.733Z,8.08
2023-02-16T13:44:15.882Z,8.08
2023-02-16T13:46:47.046Z,8.06
2023-02-16T13:49:29.965Z,8.03
2023-02-16T13:51:58.564Z,7.97
2023-02-16T13:54:29.343Z,7.95
2023-02-16T13:56:57.379Z,7.98
2023-02-16T14:00:02.088Z,7.83
2023-02-16T14:02:54.489Z,7.64
2023-02-16T14:05:39.503Z,7.47
2023-02-16T14:08:13.308Z,7.36
2023-02-16T14:10:58.952Z,7.22
2023-02-16T14:13:29.497Z,7.18
2023-02-16T14:15:58.884Z,7.14
2023-02-16T14:18:32.746Z,7.13
2023-02-16T14:21:04.332Z,7.23
2023-02-16T14:23:34.699Z,7.34
2023-02-16T14:26:03.477Z,7.46
2023-02-16T14:29:16.071Z,7.56
2023-02-16T14:31:48.296Z,7.57
2023-02-16T14:34:21.471Z,7.64
2023-02-16T14:37:12.091Z,7.76
2023-02-16T14:40:04.153Z,7.79
2023-02-16T14:42:30.297Z,7.80
2023-02-16T14:45:19.700Z,7.72
2023-02-16T14:47:52.741Z,7.65
2023-02-16T14:50:35.157Z,7.51
2023-02-16T14:53:24.540Z,7.36
2023-02-16T14:56:25.729Z,7.18
2023-02-16T14:58:56.284Z,7.04
2023-02-16T15:01:24.876Z,6.95
2023-02-16T15:03:54.649Z,6.85
2023-02-16T15:06:31.935Z,6.80
2023-02-16T15:09:00.847Z,6.72
2023-02-16T15:11:31.488Z,6.68
2023-02-16T15:14:08.451Z,6.61
2023-02-16T15:16:38.869Z,6.54
2023-02-16T15:19:10.644Z,6.48
2023-02-16T15:21:40.304Z,6.40
2023-02-16T15:24:23.061Z,6.37
2023-02-16T15:26:55.932Z,6.30
2023-02-16T15:29:26.421Z,6.29
2023-02-16T15:31:54.669Z,6.27
2023-02-16T15:34:29.903Z,6.24
2023-02-16T15:36:59.522Z,6.21
2023-02-16T15:39:42.675Z,6.15
2023-02-16T15:42:19.923Z,6.08
2023-02-16T15:44:48.147Z,6.05
2023-02-16T15:47:17.552Z,6.01
2023-02-16T15:49:45.652Z,5.98
2023-02-16T15:52:17.675Z,5.95
2023-02-16T15:54:46.683Z,5.91
2023-02-16T15:57:20.066Z,5.85
2023-02-16T15:59:49.066Z,5.76
2023-02-16T16:02:18.559Z,5.72
2023-02-16T16:04:48.142Z,5.73
2023-02-16T16:07:18.853Z,5.71
2023-02-16T16:09:46.943Z,5.67
2023-02-16T16:12:15.739Z,5.69
2023-02-16T16:14:46.099Z,5.65
2023-02-16T16:17:15.629Z,5.63
2023-02-16T16:19:43.738Z,5.59
2023-02-16T16:22:40.130Z,5.54
2023-02-16T16:25:29.123Z,5.52
2023-02-16T16:27:57.245Z,5.50
2023-02-16T16:30:29.629Z,5.53
2023-02-16T16:33:02.365Z,5.50
2023-02-16T16:35:38.480Z,5.51
2023-02-16T16:38:10.414Z,5.54
2023-02-16T16:40:38.680Z,5.53
2023-02-16T16:43:15.218Z,5.49
2023-02-16T16:45:43.783Z,5.45
2023-02-16T16:48:17.732Z,5.49
2023-02-16T16:50:46.023Z,5.44
2023-02-16T16:53:55.064Z,5.40
2023-02-16T16:56:23.467Z,5.39
2023-02-16T16:58:51.815Z,5.34
2023-02-16T17:01:19.977Z,5.27
2023-02-16T17:03:55.566Z,5.21
2023-02-16T17:06:23.942Z,5.19
2023-02-16T17:08:52.089Z,5.18
2023-02-16T17:11:25.851Z,5.19
2023-02-16T17:13:54.869Z,5.18
2023-02-16T17:16:25.170Z,5.18
2023-02-16T17:18:53.229Z,5.20
2023-02-16T17:21:21.297Z,5.18
2023-02-16T17:23:53.140Z,5.21
2023-02-16T17:26:23.247Z,5.21
2023-02-16T17:28:52.237Z,5.22
2023-02-16T17:31:20.408Z,5.21
2023-02-16T17:33:48.551Z,5.25
2023-02-16T17:36:16.731Z,5.28
2023-02-16T17:38:44.934Z,5.23
2023-02-16T17:41:17.726Z,5.15
2023-02-16T17:43:47.419Z,5.16
2023-02-16T17:46:16.028Z,5.20
2023-02-16T17:48:44.112Z,5.26
2023-02-16T17:51:14.961Z,5.31
2023-02-16T17:53:43.071Z,5.33
2023-02-16T17:56:11.658Z,5.35
2023-02-16T17:58:39.791Z,5.37
2023-02-16T18:01:11.743Z,5.37
2023-02-16T18:03:39.812Z,5.38
2023-02-16T18:06:08.023Z,5.34
2023-02-16T18:08:36.065Z,5.35
2023-02-16T18:11:04.283Z,5.32
2023-02-16T18:13:32.480Z,5.34
2023-02-16T18:16:01.006Z,5.39
2023-02-16T18:18:30.463Z,5.42
2023-02-16T18:20:58.562Z,5.38
2023-02-16T18:23:26.605Z,5.34
2023-02-16T18:25:54.848Z,5.37
2023-02-16T18:28:26.799Z,5.36
2023-02-16T18:30:54.957Z,5.37
2023-02-16T18:33:23.246Z,5.37
2023-02-16T18:35:55.973Z,5.34
2023-02-16T18:38:24.568Z,5.33
2023-02-16T18:40:53.533Z,5.37
2023-02-16T18:43:21.621Z,5.39
2023-02-16T18:45:49.788Z,5.43
2023-02-16T18:48:17.922Z,5.53
2023-02-16T18:50:45.948Z,5.56
2023-02-16T18:53:15.706Z,5.66
2023-02-16T18:55:43.779Z,5.67
2023-02-16T18:58:12.304Z,5.70
2023-02-16T19:00:40.386Z,5.75
2023-02-16T19:03:08.655Z,5.76
2023-02-16T19:05:37.079Z,5.80
2023-02-16T19:08:05.416Z,5.83
2023-02-16T19:10:34.835Z,5.86
2023-02-16T19:13:03.221Z,5.83
2023-02-16T19:15:33.259Z,5.81
2023-02-16T19:18:01.719Z,5.86
2023-02-16T19:20:29.866Z,5.92
2023-02-16T19:22:57.965Z,5.92
2023-02-16T19:25:26.870Z,5.99
2023-02-16T19:27:57.226Z,5.97
2023-02-16T19:30:25.442Z,5.94
2023-02-16T19:32:53.903Z,5.89
2023-02-16T19:35:22.120Z,5.88
2023-02-16T19:37:51.490Z,5.91
2023-02-16T19:40:19.897Z,5.91
2023-02-16T19:42:47.927Z,5.87
2023-02-16T19:45:17.883Z,5.88
2023-02-16T19:47:46.276Z,5.85
2023-02-16T19:50:14.368Z,5.81
2023-02-16T19:52:42.489Z,5.78
2023-02-16T19:55:11.534Z,5.75
2023-02-16T19:57:40.061Z,5.71
2023-02-16T20:00:11.603Z,5.67
2023-02-16T20:02:43.967Z,5.65
2023-02-16T20:05:12.215Z,5.59
2023-02-16T20:07:40.515Z,5.58
2023-02-16T20:10:09.051Z,5.59
2023-02-16T20:12:37.189Z,5.57
2023-02-16T20:15:06.736Z,5.58
2023-02-16T20:17:34.973Z,5.60
2023-02-16T20:20:05.345Z,5.66
2023-02-16T20:22:33.571Z,5.67
2023-02-16T20:25:02.453Z,5.69
2023-02-16T20:27:30.926Z,5.71
2023-02-16T20:29:59.624Z,5.68
2023-02-16T20:32:28.313Z,5.67
2023-02-16T20:34:56.605Z,5.67
2023-02-16T20:37:26.348Z,5.69
2023-02-16T20:39:55.905Z,5.72
2023-02-16T20:42:24.054Z,5.72
2023-02-16T20:44:52.220Z,5.77
2023-02-16T20:47:20.450Z,5.76
2023-02-16T20:49:48.568Z,5.76
2023-02-16T20:52:16.748Z,5.75
2023-02-16T20:54:46.578Z,5.75
2023-02-16T20:57:26.002Z,5.73
2023-02-16T20:59:54.878Z,5.72
2023-02-16T21:02:23.138Z,5.74
2023-02-16T21:04:51.458Z,5.73
2023-02-16T21:07:19.958Z,5.78
2023-02-16T21:09:49.554Z,5.75
2023-02-16T21:12:17.757Z,5.73
2023-02-16T21:14:46.046Z,5.74
2023-02-16T21:17:14.223Z,5.80
2023-02-16T21:19:42.425Z,5.82
2023-02-16T21:22:10.864Z,5.81
2023-02-16T21:24:40.760Z,5.82
2023-02-16T21:27:10.397Z,5.91
2023-02-16T21:29:38.905Z,5.95
2023-02-16T21:32:07.203Z,5.91
2023-02-16T21:34:35.527Z,5.94
2023-02-16T21:37:04.491Z,5.96
2023-02-16T21:39:49.735Z,5.99
2023-02-16T21:42:19.356Z,6.01
2023-02-16T21:44:50.035Z,6.02
2023-02-16T21:47:36.183Z,6.01
2023-02-16T21:50:04.388Z,6.05
2023-02-16T21:52:32.552Z,6.04
2023-02-16T21:55:18.438Z,5.96
2023-02-16T21:57:47.950Z,5.94
2023-02-16T22:00:17.074Z,5.94
2023-02-16T22:02:45.448Z,6.03
2023-02-16T22:05:13.733Z,6.04
2023-02-16T22:07:41.980Z,6.09
2023-02-16T22:10:10.656Z,6.07
2023-02-16T22:12:38.994Z,6.07
2023-02-16T22:15:09.293Z,6.15
2023-02-16T22:17:37.511Z,6.16
2023-02-16T22:20:06.831Z,6.15
2023-02-16T22:22:35.063Z,6.17
2023-02-16T22:25:03.199Z,6.13
2023-02-16T22:27:31.393Z,6.12
2023-02-16T22:29:59.879Z,6.16
2023-02-16T22:32:29.591Z,6.24
2023-02-16T22:34:57.696Z,6.27
2023-02-16T22:37:25.922Z,6.24
2023-02-16T22:39:55.210Z,6.25
2023-02-16T22:42:23.665Z,6.19
2023-02-16T22:44:51.780Z,6.22
2023-02-16T22:47:20.065Z,6.18
2023-02-16T22:49:49.609Z,6.14
2023-02-16T22:52:17.843Z,6.11
2023-02-16T22:54:46.190Z,6.10
2023-02-16T22:57:14.622Z,6.09
2023-02-16T22:59:42.813Z,6.09
2023-02-16T23:02:10.905Z,6.08
2023-02-16T23:04:40.042Z,6.06
2023-02-16T23:07:10.709Z,6.04
2023-02-16T23:09:38.821Z,6.01
2023-02-16T23:12:07.611Z,6.05
2023-02-16T23:14:37.855Z,6.14
2023-02-16T23:17:05.983Z,6.12
2023-02-16T23:19:34.409Z,6.13
2023-02-16T23:22:02.550Z,6.10
2023-02-16T23:24:32.320Z,6.13
2023-02-16T23:27:00.476Z,6.14
2023-02-16T23:29:28.644Z,6.12
2023-02-16T23:31:56.841Z,6.17
2023-02-16T23:34:25.017Z,6.16
2023-02-16T23:36:53.185Z,6.18
2023-02-16T23:39:21.317Z,6.15
2023-02-16T23:41:50.818Z,6.17
2023-02-16T23:44:19.077Z,6.15
2023-02-16T23:46:47.152Z,6.20
2023-02-16T23:49:15.230Z,6.13
2023-02-16T23:51:43.323Z,6.11
2023-02-16T23:54:11.989Z,6.13
2023-02-16T23:56:40.715Z,6.12
2023-02-16T23:59:10.334Z,6.16
